createdAt,value
2018-07-01T00:01:38.098Z,20.90
2018-07-01T00:04:07.935Z,20.80
2018-07-01T00:06:37.776Z,20.60
2018-07-01T00:09:07.892Z,20.60
2018-07-01T00:11:37.648Z,20.60
2018-07-01T00:14:07.541Z,20.50
2018-07-01T00:16:37.293Z,20.40
2018-07-01T00:19:07.078Z,20.50
2018-07-01T00:21:36.852Z,20.40
2018-07-01T00:24:06.681Z,20.30
2018-07-01T00:26:36.434Z,20.40
2018-07-01T00:29:06.397Z,20.40
2018-07-01T00:31:36.146Z,20.40
2018-07-01T00:34:06.035Z,20.40
2018-07-01T00:36:35.836Z,20.40
2018-07-01T00:39:08.624Z,20.30
2018-07-01T00:41:38.644Z,20.10
2018-07-01T00:44:08.660Z,20.00
2018-07-01T00:46:38.576Z,20.00
2018-07-01T00:49:08.343Z,19.90
2018-07-01T00:51:38.193Z,19.70
2018-07-01T00:54:07.964Z,19.70
2018-07-01T00:56:37.828Z,19.70
2018-07-01T00:59:07.639Z,19.80
2018-07-01T01:01:37.476Z,19.90
2018-07-01T01:04:07.263Z,19.80
2018-07-01T01:06:37.125Z,19.80
2018-07-01T01:09:08.985Z,19.80
2018-07-01T01:11:38.981Z,19.60
2018-07-01T01:14:08.964Z,19.50
2018-07-01T01:16:38.869Z,19.50
2018-07-01T01:19:09.488Z,19.40
2018-07-01T01:21:39.266Z,19.40
2018-07-01T01:24:09.078Z,19.40
2018-07-01T01:26:38.833Z,19.50
2018-07-01T01:29:08.639Z,19.60
2018-07-01T01:31:38.437Z,19.60
2018-07-01T01:34:08.272Z,19.50
2018-07-01T01:36:39.313Z,19.60
2018-07-01T01:39:11.485Z,19.60
2018-07-01T01:41:44.739Z,19.50
2018-07-01T01:44:19.700Z,19.50
2018-07-01T01:47:13.035Z,19.60
2018-07-01T01:49:48.041Z,19.50
2018-07-01T01:52:24.329Z,19.40
2018-07-01T01:54:59.388Z,19.40
2018-07-01T01:57:34.709Z,19.40
2018-07-01T02:00:08.237Z,19.40
2018-07-01T02:02:58.100Z,19.40
2018-07-01T02:05:31.771Z,19.40
2018-07-01T02:08:20.157Z,19.40
2018-07-01T02:10:49.989Z,19.40
2018-07-01T02:13:19.876Z,19.40
2018-07-01T02:15:55.106Z,19.30
2018-07-01T02:18:24.908Z,19.30
2018-07-01T02:20:54.756Z,19.20
2018-07-01T02:23:27.744Z,19.30
2018-07-01T02:25:57.587Z,19.20
2018-07-01T02:28:27.412Z,19.10
2018-07-01T02:30:57.208Z,19.10
2018-07-01T02:33:26.967Z,19.10
2018-07-01T02:35:56.774Z,19.10
2018-07-01T02:38:26.633Z,19.10
2018-07-01T02:40:56.469Z,19.00
2018-07-01T02:43:26.244Z,18.90
2018-07-01T02:45:56.027Z,18.90
2018-07-01T02:48:25.837Z,18.90
2018-07-01T02:50:55.623Z,19.00
2018-07-01T02:53:25.465Z,18.90
2018-07-01T02:55:55.277Z,18.80
2018-07-01T02:58:25.033Z,18.70
2018-07-01T03:00:54.796Z,18.50
2018-07-01T03:03:24.553Z,18.60
2018-07-01T03:05:54.360Z,18.60
2018-07-01T03:08:24.148Z,18.60
2018-07-01T03:10:53.885Z,18.60
2018-07-01T03:13:23.648Z,18.70
2018-07-01T03:15:53.386Z,18.60
2018-07-01T03:18:23.180Z,18.60
2018-07-01T03:20:52.940Z,18.60
2018-07-01T03:23:22.733Z,18.70
2018-07-01T03:25:52.632Z,18.50
2018-07-01T03:28:22.425Z,18.50
2018-07-01T03:30:52.182Z,18.50
2018-07-01T03:33:21.953Z,18.60
2018-07-01T03:35:51.832Z,18.60
2018-07-01T03:38:21.593Z,18.60
2018-07-01T03:40:51.366Z,18.60
2018-07-01T03:43:21.128Z,18.60
2018-07-01T03:45:50.912Z,18.40
2018-07-01T03:48:20.640Z,18.40
2018-07-01T03:50:50.457Z,18.50
2018-07-01T03:53:20.193Z,18.40
2018-07-01T03:55:49.965Z,18.10
2018-07-01T03:58:19.789Z,17.50
2018-07-01T04:00:49.585Z,17.60
2018-07-01T04:03:19.402Z,17.80
2018-07-01T04:05:49.288Z,18.00
2018-07-01T04:08:19.083Z,18.10
2018-07-01T04:10:48.906Z,18.30
2018-07-01T04:13:18.664Z,18.30
2018-07-01T04:15:48.484Z,18.30
2018-07-01T04:18:18.237Z,18.30
2018-07-01T04:20:48.041Z,18.50
2018-07-01T04:23:17.874Z,18.30
2018-07-01T04:25:47.654Z,18.00
2018-07-01T04:28:17.449Z,17.70
2018-07-01T04:30:47.242Z,17.80
2018-07-01T04:33:16.997Z,17.90
2018-07-01T04:35:46.860Z,18.10
2018-07-01T04:38:16.600Z,18.20
2018-07-01T04:40:46.378Z,18.30
2018-07-01T04:43:16.139Z,18.20
2018-07-01T04:45:45.957Z,18.30
2018-07-01T04:48:15.778Z,18.40
2018-07-01T04:50:45.528Z,18.40
2018-07-01T04:53:15.282Z,18.40
2018-07-01T04:55:45.054Z,18.30
2018-07-01T04:58:14.808Z,18.20
2018-07-01T05:00:44.588Z,18.20
2018-07-01T05:03:14.382Z,18.30
2018-07-01T05:05:44.141Z,18.30
2018-07-01T05:08:13.892Z,18.40
2018-07-01T05:10:43.684Z,18.30
2018-07-01T05:13:13.528Z,18.40
2018-07-01T05:15:43.344Z,18.40
2018-07-01T05:18:13.105Z,18.50
2018-07-01T05:20:42.939Z,18.70
2018-07-01T05:23:12.676Z,18.70
2018-07-01T05:25:42.453Z,18.50
2018-07-01T05:28:12.224Z,18.50
2018-07-01T05:30:42.236Z,18.60
2018-07-01T05:33:12.005Z,18.70
2018-07-01T05:35:41.829Z,18.70
2018-07-01T05:38:11.628Z,18.80
2018-07-01T05:40:41.375Z,18.70
2018-07-01T05:43:11.181Z,18.80
2018-07-01T05:45:40.956Z,18.90
2018-07-01T05:48:10.738Z,19.00
2018-07-01T05:50:40.489Z,19.10
2018-07-01T05:53:10.228Z,19.00
2018-07-01T05:55:40.061Z,18.90
2018-07-01T05:58:09.822Z,18.80
2018-07-01T06:00:39.612Z,18.90
2018-07-01T06:03:09.424Z,19.00
2018-07-01T06:05:39.232Z,19.00
2018-07-01T06:08:09.022Z,19.00
2018-07-01T06:10:38.819Z,19.10
2018-07-01T06:13:08.664Z,19.20
2018-07-01T06:15:38.429Z,19.10
2018-07-01T06:18:08.307Z,19.30
2018-07-01T06:20:38.056Z,19.40
2018-07-01T06:23:07.925Z,19.60
2018-07-01T06:25:37.783Z,19.70
2018-07-01T06:28:08.284Z,19.80
2018-07-01T06:30:38.128Z,19.80
2018-07-01T06:33:07.933Z,19.90
2018-07-01T06:35:37.757Z,19.90
2018-07-01T06:38:07.512Z,20.00
2018-07-01T06:40:37.386Z,20.10
2018-07-01T06:43:07.269Z,20.00
2018-07-01T06:45:37.061Z,20.00
2018-07-01T06:48:07.104Z,20.00
2018-07-01T06:50:36.923Z,20.10
2018-07-01T06:53:06.808Z,20.20
2018-07-01T06:55:36.706Z,20.20
2018-07-01T06:58:06.451Z,20.20
2018-07-01T07:00:36.253Z,20.30
2018-07-01T07:03:06.172Z,20.30
2018-07-01T07:05:35.961Z,20.30
2018-07-01T07:08:05.908Z,20.30
2018-07-01T07:10:35.632Z,20.40
2018-07-01T07:13:05.413Z,20.50
2018-07-01T07:15:35.224Z,20.60
2018-07-01T07:18:05.217Z,20.60
2018-07-01T07:20:35.253Z,20.70
2018-07-01T07:23:05.223Z,20.70
2018-07-01T07:25:34.992Z,20.70
2018-07-01T07:28:11.391Z,20.80
2018-07-01T07:30:41.137Z,21.00
2018-07-01T07:33:10.926Z,21.00
2018-07-01T07:35:40.762Z,21.00
2018-07-01T07:38:10.589Z,21.00
2018-07-01T07:40:40.336Z,21.10
2018-07-01T07:43:10.123Z,21.10
2018-07-01T07:45:39.908Z,21.10
2018-07-01T07:48:09.729Z,21.20
2018-07-01T07:50:39.604Z,21.20
2018-07-01T07:53:09.399Z,21.20
2018-07-01T07:55:39.209Z,21.30
2018-07-01T07:58:08.971Z,21.30
2018-07-01T08:00:38.801Z,21.40
2018-07-01T08:03:08.653Z,21.40
2018-07-01T08:05:38.504Z,21.40
2018-07-01T08:08:08.380Z,21.50
2018-07-01T08:10:38.129Z,21.50
2018-07-01T08:13:08.002Z,21.70
2018-07-01T08:15:37.761Z,21.70
2018-07-01T08:18:07.608Z,21.80
2018-07-01T08:20:37.440Z,21.90
2018-07-01T08:23:07.189Z,21.90
2018-07-01T08:25:36.966Z,22.00
2018-07-01T08:28:06.816Z,22.10
2018-07-01T08:30:36.648Z,22.20
2018-07-01T08:33:06.424Z,22.20
2018-07-01T08:35:37.344Z,22.40
2018-07-01T08:47:47.084Z,22.50
2018-07-01T08:50:16.864Z,23.10
2018-07-01T08:52:46.744Z,23.10
2018-07-01T08:55:16.588Z,23.10
2018-07-01T08:57:46.381Z,23.10
2018-07-01T09:00:16.223Z,23.20
2018-07-01T09:02:46.029Z,23.30
2018-07-01T09:05:15.849Z,23.50
2018-07-01T09:07:45.664Z,23.80
2018-07-01T09:10:15.440Z,24.30
2018-07-01T09:12:45.226Z,24.50
2018-07-01T09:15:15.019Z,24.80
2018-07-01T09:17:44.836Z,25.10
2018-07-01T09:20:14.677Z,25.50
2018-07-01T09:22:44.507Z,26.00
2018-07-01T09:25:14.275Z,26.80
2018-07-01T09:27:44.115Z,27.10
2018-07-01T09:30:13.960Z,27.40
2018-07-01T09:32:43.777Z,28.40
2018-07-01T09:35:13.582Z,28.90
2018-07-01T09:37:43.403Z,29.10
2018-07-01T09:40:13.186Z,29.20
2018-07-01T09:42:43.001Z,29.50
2018-07-01T09:45:12.813Z,29.70
2018-07-01T09:47:42.654Z,29.70
2018-07-01T09:50:12.463Z,30.50
2018-07-01T09:52:42.320Z,30.70
2018-07-01T09:55:12.174Z,30.70
2018-07-01T09:57:41.976Z,30.80
2018-07-01T10:00:11.794Z,31.60
2018-07-01T10:02:41.631Z,32.30
2018-07-01T10:05:11.451Z,32.10
2018-07-01T10:07:41.217Z,31.80
2018-07-01T10:10:10.969Z,31.50
2018-07-01T10:12:40.774Z,31.00
2018-07-01T10:15:10.561Z,31.00
2018-07-01T10:17:40.296Z,31.50
2018-07-01T10:20:10.189Z,31.60
2018-07-01T10:22:39.993Z,32.20
2018-07-01T10:25:09.793Z,32.50
2018-07-01T10:27:39.605Z,31.60
2018-07-01T10:30:09.472Z,31.70
2018-07-01T10:32:39.227Z,31.40
2018-07-01T10:35:09.002Z,31.90
2018-07-01T10:37:38.788Z,32.00
2018-07-01T10:40:08.645Z,32.10
2018-07-01T10:42:38.414Z,32.20
2018-07-01T10:45:08.217Z,32.50
2018-07-01T10:47:37.979Z,32.70
2018-07-01T10:50:07.837Z,32.70
2018-07-01T10:52:37.635Z,32.50
2018-07-01T10:55:07.425Z,32.10
2018-07-01T10:57:37.271Z,31.80
2018-07-01T11:00:07.053Z,31.90
2018-07-01T11:02:36.910Z,31.80
2018-07-01T11:05:06.760Z,31.70
2018-07-01T11:07:36.565Z,31.40
2018-07-01T11:10:06.434Z,31.50
2018-07-01T11:12:36.248Z,32.00
2018-07-01T11:15:06.104Z,32.10
2018-07-01T11:17:35.965Z,32.80
2018-07-01T11:20:05.934Z,33.10
2018-07-01T11:22:35.856Z,32.60
2018-07-01T11:25:05.738Z,32.80
2018-07-01T11:27:35.694Z,33.00
2018-07-01T11:30:05.380Z,33.70
2018-07-01T11:32:35.201Z,33.60
2018-07-01T11:35:05.250Z,33.50
2018-07-01T11:37:36.295Z,33.40
2018-07-01T11:40:06.175Z,33.30
2018-07-01T11:42:36.098Z,33.20
2018-07-01T11:45:06.254Z,33.30
2018-07-01T11:47:36.116Z,32.90
2018-07-01T11:50:05.936Z,33.00
2018-07-01T11:52:36.613Z,33.70
2018-07-01T11:55:06.465Z,34.00
2018-07-01T11:57:36.294Z,33.90
2018-07-01T12:00:06.322Z,33.90
2018-07-01T12:02:36.182Z,33.90
2018-07-01T12:05:16.661Z,34.70
2018-07-01T12:07:35.823Z,34.60
2018-07-01T12:10:05.787Z,34.00
2018-07-01T12:12:36.157Z,33.50
2018-07-01T12:15:06.009Z,33.60
2018-07-01T12:17:35.972Z,33.20
2018-07-01T12:20:05.811Z,31.80
2018-07-01T12:22:35.668Z,30.40
2018-07-01T12:25:05.736Z,29.10
2018-07-01T12:27:35.729Z,28.00
2018-07-01T12:30:06.906Z,27.40
2018-07-01T12:32:36.808Z,27.20
2018-07-01T12:35:07.076Z,27.10
2018-07-01T12:37:36.881Z,27.00
2018-07-01T12:40:06.864Z,27.00
2018-07-01T12:42:36.701Z,26.90
2018-07-01T12:45:06.609Z,26.80
2018-07-01T12:47:36.444Z,26.70
2018-07-01T12:50:06.281Z,26.60
2018-07-01T12:52:36.141Z,26.50
2018-07-01T12:55:05.982Z,26.40
2018-07-01T12:57:35.744Z,26.30
2018-07-01T13:00:06.172Z,26.20
2018-07-01T13:02:35.980Z,26.10
2018-07-01T13:05:05.857Z,26.20
2018-07-01T13:07:35.740Z,26.30
2018-07-01T13:10:05.618Z,26.10
2018-07-01T13:12:35.438Z,26.10
2018-07-01T13:15:05.453Z,26.20
2018-07-01T13:17:35.350Z,26.30
2018-07-01T13:20:05.378Z,26.40
2018-07-01T13:22:35.167Z,26.50
2018-07-01T13:25:05.108Z,26.40
2018-07-01T13:27:34.991Z,26.40
2018-07-01T13:30:05.376Z,26.50
2018-07-01T13:32:35.251Z,26.50
2018-07-01T13:35:05.089Z,26.40
2018-07-01T13:37:34.903Z,26.50
2018-07-01T13:40:04.790Z,26.50
2018-07-01T13:42:34.636Z,26.60
2018-07-01T13:45:05.616Z,26.60
2018-07-01T13:47:35.412Z,26.50
2018-07-01T13:50:05.768Z,26.50
2018-07-01T13:52:35.523Z,26.50
2018-07-01T13:55:05.477Z,26.50
2018-07-01T13:57:35.361Z,26.50
2018-07-01T14:00:06.009Z,26.50
2018-07-01T14:02:35.862Z,26.40
2018-07-01T14:05:05.892Z,26.30
2018-07-01T14:07:35.744Z,26.30
2018-07-01T14:10:05.802Z,26.30
2018-07-01T14:12:35.839Z,26.40
2018-07-01T14:15:05.883Z,26.70
2018-07-01T14:17:35.694Z,26.70
2018-07-01T14:20:07.107Z,26.70
2018-07-01T14:22:36.984Z,26.70
2018-07-01T14:25:07.240Z,26.80
2018-07-01T14:27:37.096Z,26.80
2018-07-01T14:30:07.233Z,26.80
2018-07-01T14:32:37.033Z,26.80
2018-07-01T14:35:06.858Z,26.70
2018-07-01T14:37:36.765Z,26.70
2018-07-01T14:40:06.669Z,26.80
2018-07-01T14:42:36.433Z,26.70
2018-07-01T14:45:06.310Z,26.70
2018-07-01T14:47:36.213Z,26.50
2018-07-01T14:50:06.008Z,26.50
2018-07-01T14:52:35.842Z,26.60
2018-07-01T14:55:05.798Z,26.60
2018-07-01T14:57:35.729Z,26.70
2018-07-01T15:00:05.690Z,26.70
2018-07-01T15:02:35.617Z,26.70
2018-07-01T15:05:05.796Z,26.80
2018-07-01T15:07:35.642Z,26.80
2018-07-01T15:10:05.553Z,26.70
2018-07-01T15:12:35.376Z,26.60
2018-07-01T15:15:05.231Z,26.50
2018-07-01T15:17:35.092Z,26.60
2018-07-01T15:20:05.333Z,26.70
2018-07-01T15:22:35.152Z,26.60
2018-07-01T15:25:04.964Z,26.50
2018-07-01T15:27:34.799Z,26.40
2018-07-01T15:30:04.979Z,26.40
2018-07-01T15:32:41.121Z,26.50
2018-07-01T15:35:10.977Z,26.60
2018-07-01T15:37:40.870Z,26.70
2018-07-01T15:40:11.619Z,26.60
2018-07-01T15:42:42.213Z,26.60
2018-07-01T15:45:12.020Z,26.50
2018-07-01T15:47:41.835Z,26.40
2018-07-01T15:50:11.675Z,26.20
2018-07-01T15:52:41.521Z,26.20
2018-07-01T15:55:11.399Z,26.20
2018-07-01T15:57:41.223Z,26.20
2018-07-01T16:00:11.113Z,26.10
2018-07-01T16:02:40.914Z,26.20
2018-07-01T16:05:10.753Z,26.20
2018-07-01T16:07:40.565Z,26.20
2018-07-01T16:10:10.427Z,26.10
2018-07-01T16:12:40.258Z,26.10
2018-07-01T16:15:10.090Z,26.10
2018-07-01T16:17:39.854Z,26.00
2018-07-01T16:20:09.665Z,25.90
2018-07-01T16:22:39.544Z,26.00
2018-07-01T16:25:14.585Z,26.00
2018-07-01T16:27:48.649Z,26.00
2018-07-01T16:30:18.502Z,25.90
2018-07-01T16:32:48.343Z,26.00
2018-07-01T16:35:18.162Z,26.10
2018-07-01T16:37:48.021Z,26.10
2018-07-01T16:40:17.879Z,26.10
2018-07-01T16:42:47.741Z,26.10
2018-07-01T16:45:17.590Z,26.10
2018-07-01T16:47:47.433Z,26.10
2018-07-01T16:50:17.262Z,26.10
2018-07-01T16:52:47.055Z,26.00
2018-07-01T16:55:16.913Z,25.90
2018-07-01T16:57:46.736Z,25.90
2018-07-01T17:00:16.566Z,25.90
2018-07-01T17:02:46.486Z,25.80
2018-07-01T17:05:16.325Z,25.90
2018-07-01T17:07:46.104Z,25.80
2018-07-01T17:10:15.960Z,25.80
2018-07-01T17:12:45.797Z,25.80
2018-07-01T17:15:15.635Z,25.70
2018-07-01T17:17:45.521Z,25.70
2018-07-01T17:20:15.336Z,25.60
2018-07-01T17:22:45.136Z,25.60
2018-07-01T17:25:14.922Z,25.60
2018-07-01T17:27:44.836Z,25.70
2018-07-01T17:30:14.685Z,25.70
2018-07-01T17:32:49.628Z,25.60
2018-07-01T17:35:19.489Z,25.50
2018-07-01T17:37:49.235Z,25.60
2018-07-01T17:40:19.074Z,25.60
2018-07-01T17:42:48.971Z,25.50
2018-07-01T17:45:18.698Z,25.50
2018-07-01T17:47:48.548Z,25.40
2018-07-01T17:50:18.345Z,25.40
2018-07-01T17:52:48.196Z,25.40
2018-07-01T17:55:18.023Z,25.50
2018-07-01T17:57:47.828Z,25.50
2018-07-01T18:00:17.641Z,25.40
2018-07-01T18:02:47.466Z,25.50
2018-07-01T18:05:17.274Z,25.70
2018-07-01T18:07:47.131Z,25.80
2018-07-01T18:10:16.980Z,25.80
2018-07-01T18:12:46.772Z,25.80
2018-07-01T18:15:16.625Z,25.80
2018-07-01T18:17:46.428Z,26.00
2018-07-01T18:20:16.260Z,26.00
2018-07-01T18:23:18.236Z,26.00
2018-07-01T18:25:15.869Z,26.00
2018-07-01T18:27:47.838Z,26.10
2018-07-01T18:30:15.582Z,26.10
2018-07-01T18:32:45.479Z,26.10
2018-07-01T18:35:15.253Z,26.00
2018-07-01T18:37:45.315Z,25.90
2018-07-01T18:40:15.291Z,25.90
2018-07-01T18:42:45.065Z,25.90
2018-07-01T18:45:15.482Z,26.00
2018-07-01T18:47:45.270Z,25.90
2018-07-01T18:50:15.100Z,25.80
2018-07-01T18:52:44.921Z,25.80
2018-07-01T18:55:14.786Z,25.80
2018-07-01T18:57:44.604Z,25.70
2018-07-01T19:00:14.462Z,25.80
2018-07-01T19:02:44.375Z,25.70
2018-07-01T19:05:14.207Z,25.60
2018-07-01T19:07:44.020Z,25.50
2018-07-01T19:10:13.856Z,25.40
2018-07-01T19:12:43.733Z,25.50
2018-07-01T19:15:13.502Z,25.40
2018-07-01T19:17:43.352Z,25.40
2018-07-01T19:20:13.168Z,25.30
2018-07-01T19:22:43.025Z,25.30
2018-07-01T19:25:12.847Z,25.30
2018-07-01T19:27:42.673Z,25.30
2018-07-01T19:30:12.535Z,25.10
2018-07-01T19:32:42.338Z,25.00
2018-07-01T19:35:12.175Z,24.90
2018-07-01T19:37:42.013Z,24.80
2018-07-01T19:40:11.854Z,24.70
2018-07-01T19:42:41.938Z,24.60
2018-07-01T19:45:11.613Z,24.60
2018-07-01T19:47:41.443Z,24.40
2018-07-01T19:50:11.335Z,24.50
2018-07-01T19:52:41.170Z,24.50
2018-07-01T19:55:10.974Z,24.40
2018-07-01T19:57:40.773Z,24.40
2018-07-01T20:00:10.633Z,24.40
2018-07-01T20:02:40.843Z,24.30
2018-07-01T20:05:10.709Z,24.30
2018-07-01T20:07:40.707Z,24.30
2018-07-01T20:10:10.646Z,24.30
2018-07-01T20:12:40.547Z,24.20
2018-07-01T20:15:10.355Z,24.10
2018-07-01T20:17:40.267Z,24.10
2018-07-01T20:20:10.073Z,24.00
2018-07-01T20:22:39.847Z,23.80
2018-07-01T20:25:09.836Z,23.80
2018-07-01T20:27:39.683Z,23.90
2018-07-01T20:30:09.503Z,23.80
2018-07-01T20:32:39.319Z,23.80
2018-07-01T20:35:09.178Z,23.70
2018-07-01T20:37:38.990Z,23.70
2018-07-01T20:40:08.899Z,23.80
2018-07-01T20:42:38.728Z,23.80
2018-07-01T20:45:08.597Z,23.70
2018-07-01T20:47:38.417Z,23.80
2018-07-01T20:50:08.232Z,23.80
2018-07-01T20:52:38.077Z,23.80
2018-07-01T20:55:07.895Z,23.70
2018-07-01T20:57:37.752Z,23.60
2018-07-01T21:00:07.600Z,23.50
2018-07-01T21:02:37.486Z,23.50
2018-07-01T21:05:07.305Z,23.40
2018-07-01T21:07:37.209Z,23.40
2018-07-01T21:10:07.081Z,23.40
2018-07-01T21:12:36.895Z,23.40
2018-07-01T21:15:06.752Z,23.20
2018-07-01T21:17:36.548Z,23.20
2018-07-01T21:20:06.301Z,23.20
2018-07-01T21:22:36.125Z,23.10
2018-07-01T21:25:06.163Z,23.10
2018-07-01T21:27:35.965Z,23.00
2018-07-01T21:30:05.882Z,22.90
2018-07-01T21:32:35.693Z,22.90
2018-07-01T21:35:05.719Z,22.90
2018-07-01T21:37:35.653Z,22.90
2018-07-01T21:40:05.489Z,22.90
2018-07-01T21:42:35.306Z,22.90
2018-07-01T21:45:05.967Z,22.90
2018-07-01T21:47:35.772Z,22.80
2018-07-01T21:50:05.815Z,22.90
2018-07-01T21:52:35.608Z,22.70
2018-07-01T21:55:05.780Z,22.70
2018-07-01T21:57:35.633Z,22.60
2018-07-01T22:00:06.956Z,22.60
2018-07-01T22:02:36.781Z,22.60
2018-07-01T22:05:06.775Z,22.60
2018-07-01T22:07:36.561Z,22.50
2018-07-01T22:10:06.391Z,22.50
2018-07-01T22:12:47.358Z,22.40
2018-07-01T22:15:28.402Z,22.20
2018-07-01T22:17:58.237Z,22.10
2018-07-01T22:20:28.000Z,22.00
2018-07-01T22:22:57.782Z,22.10
2018-07-01T22:25:27.584Z,22.10
2018-07-01T22:27:57.382Z,22.00
2018-07-01T22:30:27.141Z,21.90
2018-07-01T22:32:56.951Z,21.90
2018-07-01T22:35:26.738Z,22.00
2018-07-01T22:37:56.489Z,21.90
2018-07-01T22:40:26.320Z,21.90
2018-07-01T22:42:56.110Z,21.80
2018-07-01T22:45:25.877Z,21.70
2018-07-01T22:47:55.693Z,21.70
2018-07-01T22:50:25.424Z,21.70
2018-07-01T22:52:55.200Z,21.50
2018-07-01T22:55:24.989Z,21.30
2018-07-01T22:57:54.746Z,21.30
2018-07-01T23:00:24.535Z,21.30
2018-07-01T23:03:07.253Z,21.30
2018-07-01T23:05:36.792Z,21.40
2018-07-01T23:08:06.625Z,21.30
2018-07-01T23:10:36.414Z,21.20
2018-07-01T23:13:06.214Z,21.00
2018-07-01T23:15:35.997Z,21.10
2018-07-01T23:18:05.809Z,21.20
2018-07-01T23:20:35.595Z,21.20
2018-07-01T23:23:05.462Z,21.20
2018-07-01T23:25:35.233Z,21.10
2018-07-01T23:28:05.037Z,21.00
2018-07-01T23:30:34.941Z,21.00
2018-07-01T23:33:04.768Z,21.00
2018-07-01T23:35:34.580Z,21.10
2018-07-01T23:38:04.437Z,21.10
2018-07-01T23:40:34.241Z,21.10
2018-07-01T23:43:04.001Z,20.90
2018-07-01T23:45:34.174Z,20.90
2018-07-01T23:48:04.004Z,20.90
2018-07-01T23:50:33.815Z,20.80
2018-07-01T23:53:03.583Z,20.90
2018-07-01T23:55:33.388Z,20.80
2018-07-01T23:58:03.204Z,20.80
